createdAt,value
2023-01-04T00:03:14.029Z,7.25
2023-01-04T00:08:07.055Z,8.37
2023-01-04T00:12:59.250Z,8.17
2023-01-04T00:17:50.787Z,8.09
2023-01-04T00:22:42.354Z,8.61
2023-01-04T00:27:34.233Z,8.42
2023-01-04T00:32:25.826Z,8.70
2023-01-04T00:37:17.387Z,8.69
2023-01-04T00:42:08.912Z,7.95
2023-01-04T00:47:03.043Z,8.37
2023-01-04T00:51:55.379Z,8.49
2023-01-04T00:56:47.467Z,8.67
2023-01-04T01:01:40.446Z,8.70
2023-01-04T01:06:34.264Z,8.72
2023-01-04T01:11:26.878Z,8.66
2023-01-04T01:16:37.892Z,8.31
2023-01-04T01:21:32.833Z,8.51
2023-01-04T01:26:25.530Z,8.19
2023-01-04T01:31:20.444Z,8.35
2023-01-04T01:36:13.676Z,8.26
2023-01-04T01:41:07.351Z,8.11
2023-01-04T01:45:59.123Z,8.26
2023-01-04T01:50:57.680Z,7.65
2023-01-04T01:55:51.312Z,7.72
2023-01-04T02:00:43.237Z,8.14
2023-01-04T02:05:36.374Z,7.93
2023-01-04T02:10:28.257Z,8.39
2023-01-04T02:15:26.603Z,8.06
2023-01-04T02:20:50.348Z,9.03
2023-01-04T02:26:21.311Z,9.22
2023-01-04T02:31:49.771Z,8.21
2023-01-04T02:36:47.443Z,9.17
2023-01-04T02:41:50.297Z,9.00
2023-01-04T02:46:49.186Z,7.93
2023-01-04T02:51:41.539Z,9.10
2023-01-04T02:56:45.183Z,9.22
2023-01-04T03:02:05.588Z,8.96
2023-01-04T03:07:18.770Z,8.75
2023-01-04T03:12:31.611Z,9.34
2023-01-04T03:17:25.723Z,8.91
2023-01-04T03:22:41.923Z,9.01
2023-01-04T03:27:53.043Z,9.14
2023-01-04T03:33:12.795Z,9.21
2023-01-04T03:38:39.212Z,9.36
2023-01-04T03:44:00.688Z,9.19
2023-01-04T03:48:55.413Z,9.51
2023-01-04T03:54:23.252Z,9.51
2023-01-04T03:59:14.841Z,8.95
2023-01-04T04:04:25.259Z,9.14
2023-01-04T04:09:16.892Z,9.16
2023-01-04T04:14:09.212Z,9.21
2023-01-04T04:19:06.404Z,9.11
2023-01-04T04:24:02.133Z,8.82
2023-01-04T04:28:53.708Z,9.03
2023-01-04T04:33:47.299Z,8.92
2023-01-04T04:38:38.878Z,8.52
2023-01-04T04:43:30.468Z,9.24
2023-01-04T04:48:22.103Z,9.05
2023-01-04T04:53:13.651Z,8.20
2023-01-04T04:58:05.189Z,8.34
2023-01-04T05:03:00.489Z,9.40
2023-01-04T05:07:52.587Z,7.92
2023-01-04T05:13:02.381Z,9.02
2023-01-04T05:17:55.473Z,9.08
2023-01-04T05:22:46.992Z,9.59
2023-01-04T05:27:38.620Z,9.30
2023-01-04T05:32:30.233Z,9.53
2023-01-04T05:37:21.798Z,9.66
2023-01-04T05:42:25.385Z,9.58
2023-01-04T05:47:16.973Z,9.72
2023-01-04T05:52:08.611Z,9.87
2023-01-04T05:57:00.304Z,9.74
2023-01-04T06:01:53.343Z,9.89
2023-01-04T06:06:45.016Z,9.23
2023-01-04T06:11:36.636Z,9.84
2023-01-04T06:16:28.321Z,9.62
2023-01-04T06:21:20.168Z,9.89
2023-01-04T06:26:11.925Z,9.85
2023-01-04T06:31:08.127Z,9.30
2023-01-04T06:36:00.777Z,10.05
2023-01-04T06:40:52.744Z,9.78
2023-01-04T06:45:44.350Z,10.13
2023-01-04T06:50:36.462Z,10.11
2023-01-04T06:55:29.776Z,10.20
2023-01-04T07:00:21.773Z,9.97
2023-01-04T07:05:14.284Z,9.88
2023-01-04T07:10:09.732Z,10.29
2023-01-04T07:15:02.256Z,9.78
2023-01-04T07:20:13.875Z,9.83
2023-01-04T07:25:05.914Z,10.12
2023-01-04T07:29:57.738Z,10.27
2023-01-04T07:34:49.268Z,10.05
2023-01-04T07:39:40.852Z,10.46
2023-01-04T07:44:32.532Z,10.39
2023-01-04T07:49:24.125Z,10.13
2023-01-04T07:54:19.765Z,10.34
2023-01-04T07:59:13.028Z,10.66
2023-01-04T08:04:06.140Z,10.29
2023-01-04T08:09:02.148Z,10.78
2023-01-04T08:13:53.740Z,10.80
2023-01-04T08:18:45.309Z,10.57
2023-01-04T08:23:37.751Z,10.60
2023-01-04T08:28:29.490Z,10.73
2023-01-04T08:33:21.728Z,10.78
2023-01-04T08:38:57.570Z,10.95
2023-01-04T08:43:26.037Z,10.51
2023-01-04T08:48:24.172Z,10.99
2023-01-04T08:53:16.170Z,10.06
2023-01-04T08:58:07.677Z,11.07
2023-01-04T09:02:59.434Z,10.99
2023-01-04T09:07:51.313Z,11.15
2023-01-04T09:12:43.099Z,11.19
2023-01-04T09:17:34.666Z,10.01
2023-01-04T09:22:26.431Z,11.31
2023-01-04T09:27:17.976Z,11.33
2023-01-04T09:32:16.121Z,10.91
2023-01-04T09:37:08.473Z,10.97
2023-01-04T09:42:05.036Z,10.67
2023-01-04T09:47:03.999Z,11.30
2023-01-04T09:52:27.727Z,11.44
2023-01-04T09:57:27.136Z,11.83
2023-01-04T10:02:31.946Z,11.46
2023-01-04T10:07:29.606Z,11.88
2023-01-04T10:12:34.514Z,11.84
2023-01-04T10:18:13.744Z,11.79
2023-01-04T10:22:59.021Z,11.82
2023-01-04T10:28:27.797Z,11.86
2023-01-04T10:33:33.489Z,11.83
2023-01-04T10:38:35.634Z,11.08
2023-01-04T10:44:12.122Z,11.42
2023-01-04T10:49:06.852Z,10.86
2023-01-04T10:54:27.083Z,11.11
2023-01-04T10:59:27.474Z,11.60
2023-01-04T11:04:38.506Z,11.58
2023-01-04T11:09:47.851Z,11.52
2023-01-04T11:14:39.398Z,11.15
2023-01-04T11:19:32.758Z,10.83
2023-01-04T11:24:32.459Z,10.39
2023-01-04T11:29:35.136Z,11.45
2023-01-04T11:34:48.610Z,11.53
2023-01-04T11:39:40.220Z,11.58
2023-01-04T11:44:35.052Z,11.79
2023-01-04T11:49:34.873Z,11.31
2023-01-04T11:54:26.788Z,11.01
2023-01-04T11:59:25.300Z,12.03
2023-01-04T12:04:27.659Z,12.14
2023-01-04T12:09:21.844Z,12.16
2023-01-04T12:14:26.331Z,12.19
2023-01-04T12:19:19.755Z,11.29
2023-01-04T12:24:18.295Z,12.35
2023-01-04T12:29:25.017Z,12.45
2023-01-04T12:34:22.475Z,12.49
2023-01-04T12:39:14.281Z,12.59
2023-01-04T12:44:37.966Z,12.66
2023-01-04T12:49:29.950Z,12.71
2023-01-04T12:54:32.124Z,12.47
2023-01-04T12:59:34.391Z,12.82
2023-01-04T13:04:41.033Z,12.84
2023-01-04T13:09:33.184Z,12.27
2023-01-04T13:14:33.996Z,12.90
2023-01-04T13:19:26.475Z,12.88
2023-01-04T13:24:32.129Z,13.02
2023-01-04T13:29:30.431Z,13.10
2023-01-04T13:34:34.171Z,13.06
2023-01-04T13:39:25.764Z,13.12
2023-01-04T13:44:44.215Z,12.56
2023-01-04T13:49:41.256Z,11.97
2023-01-04T13:54:35.446Z,12.73
2023-01-04T13:59:27.476Z,12.71
2023-01-04T14:04:30.742Z,13.17
2023-01-04T14:09:28.977Z,13.18
2023-01-04T14:14:28.655Z,13.20
2023-01-04T14:19:28.055Z,13.25
2023-01-04T14:29:44.356Z,13.05
2023-01-04T14:34:36.079Z,12.71
2023-01-04T14:39:32.993Z,12.94
2023-01-04T14:44:28.293Z,13.18
2023-01-04T14:49:22.412Z,13.23
2023-01-04T14:54:23.948Z,12.87
2023-01-04T14:59:16.937Z,13.28
2023-01-04T15:04:08.588Z,12.84
2023-01-04T15:09:00.334Z,12.93
2023-01-04T15:13:52.820Z,13.17
2023-01-04T15:18:45.783Z,13.28
2023-01-04T15:23:37.481Z,12.91
2023-01-04T15:28:29.200Z,12.62
2023-01-04T15:33:20.750Z,12.56
2023-01-04T15:38:18.221Z,12.48
2023-01-04T15:43:10.582Z,12.54
2023-01-04T15:48:04.331Z,11.82
2023-01-04T15:52:57.064Z,12.19
2023-01-04T15:57:50.096Z,11.98
2023-01-04T16:02:41.995Z,12.00
2023-01-04T16:07:36.678Z,11.94
2023-01-04T16:12:44.477Z,10.96
2023-01-04T16:17:36.423Z,11.84
2023-01-04T16:22:29.030Z,12.00
2023-01-04T16:27:21.339Z,11.59
2023-01-04T16:32:12.885Z,12.16
2023-01-04T16:37:04.463Z,12.13
2023-01-04T16:58:32.991Z,12.22
2023-01-04T17:03:26.856Z,11.88
2023-01-04T17:08:23.558Z,12.06
2023-01-04T17:13:18.367Z,12.07
2023-01-04T17:18:12.320Z,11.81
2023-01-04T17:23:03.903Z,12.05
2023-01-04T17:27:55.455Z,12.18
2023-01-04T17:32:47.002Z,11.92
2023-01-04T17:37:38.541Z,12.02
2023-01-04T17:42:32.910Z,11.59
2023-01-04T17:47:24.473Z,12.35
2023-01-04T17:52:22.194Z,12.43
2023-01-04T17:57:17.589Z,12.32
2023-01-04T18:02:09.564Z,12.17
2023-01-04T18:07:01.541Z,11.56
2023-01-04T18:11:53.163Z,12.35
2023-01-04T18:16:57.689Z,12.17
2023-01-04T18:21:49.647Z,12.03
2023-01-04T18:27:10.908Z,12.14
2023-01-04T18:31:52.883Z,12.25
2023-01-04T18:36:45.390Z,11.68
2023-01-04T18:41:37.297Z,11.90
2023-01-04T18:46:29.066Z,12.33
2023-01-04T18:51:22.415Z,11.51
2023-01-04T18:56:14.286Z,12.06
2023-01-04T19:01:08.739Z,12.33
2023-01-04T19:06:00.380Z,12.24
2023-01-04T19:10:52.165Z,12.01
2023-01-04T19:15:47.718Z,12.44
2023-01-04T19:20:40.080Z,12.38
2023-01-04T19:25:31.888Z,12.32
2023-01-04T19:30:23.556Z,12.35
2023-01-04T19:35:15.183Z,12.39
2023-01-04T19:40:07.223Z,12.41
2023-01-04T19:44:58.736Z,12.45
2023-01-04T19:49:50.519Z,12.44
2023-01-04T19:54:42.195Z,12.38
2023-01-04T19:59:33.767Z,12.18
2023-01-04T20:04:27.694Z,12.13
2023-01-04T20:09:24.716Z,12.45
2023-01-04T20:14:16.336Z,12.47
2023-01-04T20:19:07.958Z,12.53
2023-01-04T20:24:00.616Z,12.16
2023-01-04T20:28:52.204Z,11.66
2023-01-04T20:33:44.145Z,12.25
2023-01-04T20:38:40.682Z,11.86
2023-01-04T20:43:36.139Z,11.44
2023-01-04T20:48:28.689Z,11.61
2023-01-04T20:53:20.327Z,10.96
2023-01-04T20:58:14.582Z,11.68
2023-01-04T21:03:08.460Z,11.77
2023-01-04T21:08:00.290Z,11.85
2023-01-04T21:12:51.834Z,11.82
2023-01-04T21:17:43.571Z,11.81
2023-01-04T21:22:35.148Z,12.09
2023-01-04T21:27:27.026Z,11.94
2023-01-04T21:32:18.661Z,11.97
2023-01-04T21:37:10.236Z,12.16
2023-01-04T21:42:01.853Z,12.19
2023-01-04T21:46:53.555Z,12.09
2023-01-04T21:51:45.178Z,11.80
2023-01-04T21:56:36.864Z,11.84
2023-01-04T22:01:34.529Z,11.86
2023-01-04T22:06:27.196Z,12.05
2023-01-04T22:11:18.770Z,12.05
2023-01-04T22:16:14.641Z,11.55
2023-01-04T22:21:17.992Z,12.10
2023-01-04T22:26:11.137Z,12.08
2023-01-04T22:31:10.935Z,11.66
2023-01-04T22:36:17.164Z,11.63
2023-01-04T22:41:15.188Z,11.95
2023-01-04T22:46:08.649Z,11.89
2023-01-04T22:51:04.177Z,11.80
2023-01-04T23:01:08.394Z,11.01
2023-01-04T23:06:00.176Z,11.18
2023-01-04T23:10:51.953Z,10.48
2023-01-04T23:15:43.479Z,11.46
2023-01-04T23:20:36.359Z,11.09
2023-01-04T23:25:27.963Z,11.61
2023-01-04T23:30:19.559Z,11.58
2023-01-04T23:35:11.129Z,11.17
2023-01-04T23:40:04.802Z,11.54
2023-01-04T23:44:56.348Z,11.44
2023-01-04T23:49:47.903Z,11.58
2023-01-04T23:54:40.589Z,10.02
2023-01-04T23:59:32.670Z,11.17
